Time;durP1;ratioP1;P1;durP2;ratioP2;P2;SDS_P1;SDS_P2;PMS_P1;PMS_P2;Temp;Humidity;BMP_temperature;BMP_pressure;BME280_temperature;BME280_humidity;BME280_pressure;Samples;Min_cycle;Max_cycle;Signal;HPM_P1;HPM_P2
2023/09/27 00:01:10;;;;;;;11.30;7.40;;;15.40;99.90;;;;;;6158072;23;20963;-85
2023/09/27 00:03:37;;;;;;;11.00;7.80;;;15.50;99.90;;;;;;6158573;23;20248;-87
2023/09/27 00:06:02;;;;;;;16.70;7.73;;;15.50;99.90;;;;;;6182903;23;20219;-85
2023/09/27 00:08:28;;;;;;;8.83;6.60;;;15.60;99.90;;;;;;6157620;23;20280;-85
2023/09/27 00:10:54;;;;;;;11.07;7.33;;;15.70;99.90;;;;;;6157315;23;20201;-86
2023/09/27 00:13:20;;;;;;;12.70;7.67;;;15.80;99.90;;;;;;6182502;23;20163;-86
2023/09/27 00:15:45;;;;;;;12.20;7.47;;;15.90;99.90;;;;;;6158689;23;20177;-86
2023/09/27 00:18:11;;;;;;;10.33;8.10;;;16.00;99.90;;;;;;6182054;23;20261;-85
2023/09/27 00:20:37;;;;;;;11.53;7.73;;;16.00;99.90;;;;;;6182984;23;20198;-85
2023/09/27 00:23:03;;;;;;;10.30;7.17;;;16.10;99.90;;;;;;6207468;23;20662;-85
2023/09/27 00:25:29;;;;;;;10.10;8.23;;;16.10;99.90;;;;;;6182121;23;20197;-86
2023/09/27 00:27:54;;;;;;;10.20;7.07;;;16.10;99.90;;;;;;6208386;23;20216;-86
2023/09/27 00:30:20;;;;;;;10.60;8.37;;;16.10;99.90;;;;;;6182388;23;20202;-85
2023/09/27 00:32:46;;;;;;;13.60;7.83;;;16.20;99.90;;;;;;6182155;23;20197;-86
2023/09/27 00:35:19;;;;;;;11.77;8.57;;;16.20;99.90;;;;;;6182462;23;20573;-85
2023/09/27 00:37:46;;;;;;;11.07;8.47;;;16.20;99.90;;;;;;6207663;23;20643;-86
2023/09/27 00:40:13;;;;;;;13.07;7.80;;;16.20;99.90;;;;;;6207293;23;20162;-86
2023/09/27 00:42:39;;;;;;;11.87;7.50;;;16.20;99.90;;;;;;6183046;23;20163;-85
2023/09/27 00:45:06;;;;;;;11.00;7.60;;;16.20;99.90;;;;;;6206369;23;20285;-85
2023/09/27 00:47:33;;;;;;;10.43;7.60;;;16.20;99.90;;;;;;6182517;23;20197;-86
2023/09/27 00:49:59;;;;;;;10.47;7.63;;;16.20;99.90;;;;;;6157722;23;20202;-85
2023/09/27 00:52:25;;;;;;;10.13;7.43;;;16.20;99.90;;;;;;6207946;23;20491;-85
2023/09/27 00:54:53;;;;;;;9.43;6.70;;;16.30;99.90;;;;;;6183760;23;20186;-85
2023/09/27 00:57:19;;;;;;;11.27;7.73;;;16.20;99.90;;;;;;6207530;23;20501;-85
2023/09/27 00:59:45;;;;;;;10.50;7.70;;;16.20;99.90;;;;;;6206903;23;20194;-85
2023/09/27 01:02:12;;;;;;;14.30;6.77;;;16.20;99.90;;;;;;6182958;23;20194;-85
2023/09/27 01:04:39;;;;;;;10.60;7.97;;;16.30;99.90;;;;;;6157702;23;20900;-85
2023/09/27 01:07:07;;;;;;;11.93;7.20;;;16.30;99.90;;;;;;6182564;23;20162;-85
2023/09/27 01:09:33;;;;;;;9.90;6.77;;;16.30;99.90;;;;;;6207474;23;20216;-86
2023/09/27 01:11:59;;;;;;;7.63;5.60;;;16.30;99.90;;;;;;6182524;23;20276;-84
2023/09/27 01:14:25;;;;;;;9.10;6.93;;;16.30;99.90;;;;;;6182987;23;20688;-85
2023/09/27 01:16:51;;;;;;;9.10;7.07;;;16.30;99.90;;;;;;6181890;23;20575;-85
2023/09/27 01:19:17;;;;;;;12.57;7.17;;;16.30;99.90;;;;;;6182263;23;20158;-85
2023/09/27 01:21:43;;;;;;;8.67;6.93;;;16.30;99.90;;;;;;6157903;23;20162;-85
2023/09/27 01:24:11;;;;;;;11.60;7.70;;;16.30;99.90;;;;;;6181905;23;20335;-85
2023/09/27 01:26:37;;;;;;;10.77;7.43;;;16.30;99.90;;;;;;6207147;23;20198;-85
2023/09/27 01:29:04;;;;;;;13.17;8.33;;;16.30;99.90;;;;;;6183139;23;20202;-85
2023/09/27 01:31:31;;;;;;;13.00;8.17;;;16.30;99.90;;;;;;6159762;23;20202;-85
2023/09/27 01:33:57;;;;;;;10.57;7.67;;;16.20;99.90;;;;;;6185312;23;20236;-85
2023/09/27 01:36:25;;;;;;;12.07;7.77;;;16.30;99.90;;;;;;6159180;23;20671;-85
2023/09/27 01:38:51;;;;;;;13.97;8.43;;;16.20;99.90;;;;;;6160210;23;20675;-85
2023/09/27 01:41:17;;;;;;;11.47;7.10;;;16.20;99.90;;;;;;6209563;23;20966;-85
2023/09/27 01:43:43;;;;;;;9.93;8.00;;;16.20;99.90;;;;;;6159567;23;20190;-85
2023/09/27 01:46:09;;;;;;;9.07;6.67;;;16.10;99.90;;;;;;6159702;23;21195;-85
2023/09/27 01:48:35;;;;;;;11.40;8.03;;;16.10;99.90;;;;;;6160315;23;20244;-85
2023/09/27 01:51:00;;;;;;;13.53;7.63;;;16.10;99.90;;;;;;6184006;23;20513;-85
2023/09/27 01:53:26;;;;;;;10.23;6.47;;;16.00;99.90;;;;;;6184347;23;20194;-85
2023/09/27 01:55:52;;;;;;;11.43;7.60;;;16.00;99.90;;;;;;6183785;23;20209;-85
2023/09/27 01:58:18;;;;;;;12.20;7.43;;;16.00;99.90;;;;;;6159416;23;20626;-85
2023/09/27 02:00:43;;;;;;;11.23;8.50;;;15.90;99.90;;;;;;6160324;23;20165;-85
2023/09/27 02:03:09;;;;;;;11.90;8.47;;;15.80;99.90;;;;;;6183258;23;20557;-85
2023/09/27 02:05:35;;;;;;;12.03;8.17;;;15.90;99.90;;;;;;6158731;23;20643;-85
2023/09/27 02:08:01;;;;;;;8.97;7.17;;;15.80;99.90;;;;;;6158944;23;20327;-85
2023/09/27 02:10:26;;;;;;;12.47;8.50;;;15.80;99.90;;;;;;6159073;23;20860;-86
2023/09/27 02:12:52;;;;;;;11.90;7.90;;;15.70;99.90;;;;;;6159786;23;20158;-84
2023/09/27 02:15:18;;;;;;;11.80;8.20;;;15.60;99.90;;;;;;6233165;23;20205;-85
2023/09/27 02:17:44;;;;;;;12.70;8.37;;;15.50;99.90;;;;;;6158671;23;20627;-84
2023/09/27 02:20:12;;;;;;;10.40;7.40;;;15.40;99.90;;;;;;6183511;23;20297;-85
2023/09/27 02:22:42;;;;;;;10.33;7.47;;;15.30;99.90;;;;;;6208410;23;20268;-85
2023/09/27 02:25:11;;;;;;;9.03;7.77;;;15.20;99.90;;;;;;6184763;23;20781;-85
2023/09/27 02:27:38;;;;;;;11.70;8.20;;;15.20;99.90;;;;;;6210060;23;20154;-85
2023/09/27 02:30:07;;;;;;;9.13;7.47;;;15.20;99.90;;;;;;6158877;23;20571;-84
2023/09/27 02:32:33;;;;;;;12.03;9.30;;;15.20;99.90;;;;;;6208765;23;20532;-85
2023/09/27 02:34:59;;;;;;;10.10;7.27;;;15.20;99.90;;;;;;6208828;23;20206;-84
2023/09/27 02:37:25;;;;;;;13.40;9.47;;;15.20;99.90;;;;;;6159865;23;20489;-84
2023/09/27 02:39:51;;;;;;;11.23;7.30;;;15.20;99.90;;;;;;6159622;23;20210;-84
2023/09/27 02:42:17;;;;;;;11.57;7.57;;;15.20;99.90;;;;;;6208418;23;20256;-84
2023/09/27 02:44:43;;;;;;;11.63;7.80;;;15.20;99.90;;;;;;6184506;23;20284;-85
2023/09/27 02:47:09;;;;;;;11.73;8.20;;;15.30;99.90;;;;;;6158918;23;20202;-84
2023/09/27 02:49:35;;;;;;;12.60;8.83;;;15.30;99.90;;;;;;6208534;23;20273;-85
2023/09/27 02:52:01;;;;;;;10.43;7.93;;;15.30;99.90;;;;;;6209017;23;20151;-85
2023/09/27 02:54:27;;;;;;;12.43;8.93;;;15.40;99.90;;;;;;6233318;23;20248;-85
2023/09/27 02:56:53;;;;;;;11.50;8.40;;;15.40;99.90;;;;;;6182950;23;20240;-86
2023/09/27 02:59:19;;;;;;;15.23;9.30;;;15.40;99.90;;;;;;6183839;23;20210;-84
2023/09/27 03:01:45;;;;;;;11.30;8.87;;;15.40;99.90;;;;;;6159234;23;20193;-85
2023/09/27 03:04:11;;;;;;;10.40;8.03;;;15.40;99.90;;;;;;6159323;23;20490;-85
2023/09/27 03:06:37;;;;;;;12.83;9.33;;;15.40;99.90;;;;;;6183876;23;20157;-84
2023/09/27 03:09:04;;;;;;;13.30;7.90;;;15.40;99.90;;;;;;6158021;23;20214;-85
2023/09/27 03:11:30;;;;;;;12.27;8.47;;;15.40;99.90;;;;;;6183330;23;20209;-85
2023/09/27 03:13:56;;;;;;;13.53;10.10;;;15.40;99.90;;;;;;6158418;23;20186;-85
2023/09/27 03:16:22;;;;;;;16.17;9.57;;;15.40;99.90;;;;;;6183075;23;20193;-85
2023/09/27 03:18:48;;;;;;;16.43;8.90;;;15.30;99.90;;;;;;6159626;23;20158;-85
2023/09/27 03:21:13;;;;;;;14.53;8.67;;;15.20;99.90;;;;;;6158358;23;20225;-85
2023/09/27 03:23:39;;;;;;;13.77;9.37;;;15.20;99.90;;;;;;6159258;23;20592;-85
2023/09/27 03:26:05;;;;;;;14.23;9.73;;;15.20;99.90;;;;;;6158544;23;20663;-85
2023/09/27 03:28:31;;;;;;;16.57;8.30;;;15.10;99.90;;;;;;6183631;23;20193;-85
2023/09/27 03:30:57;;;;;;;12.93;8.43;;;15.00;99.90;;;;;;6208476;23;20158;-85
2023/09/27 03:33:23;;;;;;;14.07;9.03;;;14.90;99.90;;;;;;6182434;23;20194;-86
2023/09/27 03:35:48;;;;;;;10.03;7.37;;;14.80;99.90;;;;;;6183007;23;20236;-85
2023/09/27 03:38:14;;;;;;;13.80;8.67;;;14.80;99.90;;;;;;6183199;23;20208;-86
2023/09/27 03:40:40;;;;;;;10.23;7.73;;;14.70;99.90;;;;;;6158370;23;20273;-84
2023/09/27 03:43:06;;;;;;;13.37;8.67;;;14.80;99.90;;;;;;6208201;23;20165;-85
2023/09/27 03:45:35;;;;;;;13.87;9.80;;;14.80;99.90;;;;;;6207559;23;20714;-85
2023/09/27 03:48:02;;;;;;;13.80;8.77;;;14.80;99.90;;;;;;6207325;23;20202;-85
2023/09/27 03:50:30;;;;;;;13.17;8.87;;;14.80;99.90;;;;;;6207807;23;20198;-85
2023/09/27 03:52:57;;;;;;;17.53;8.63;;;14.70;99.90;;;;;;6157411;23;20221;-85
2023/09/27 03:55:23;;;;;;;12.93;8.30;;;14.70;99.90;;;;;;6207668;23;20197;-85
2023/09/27 03:57:49;;;;;;;12.03;8.33;;;14.70;99.90;;;;;;6184119;23;20249;-85
2023/09/27 04:00:17;;;;;;;12.83;8.40;;;14.70;99.90;;;;;;6158030;23;20213;-85
2023/09/27 04:02:43;;;;;;;13.53;9.27;;;14.70;99.90;;;;;;6159074;23;20198;-86
2023/09/27 04:05:09;;;;;;;14.63;7.90;;;14.80;99.90;;;;;;6182895;23;20205;-85
2023/09/27 04:07:35;;;;;;;14.97;8.43;;;14.70;99.90;;;;;;6157838;23;20209;-84
2023/09/27 04:10:03;;;;;;;12.37;8.93;;;14.70;99.90;;;;;;6183862;23;20534;-87
2023/09/27 04:12:29;;;;;;;13.83;8.93;;;14.70;99.90;;;;;;6208280;23;20208;-85
2023/09/27 04:14:55;;;;;;;10.70;9.07;;;14.60;99.90;;;;;;6182504;23;20210;-85
2023/09/27 04:17:21;;;;;;;13.87;9.17;;;14.60;99.90;;;;;;6157623;23;20252;-85
2023/09/27 04:19:50;;;;;;;18.30;10.20;;;14.50;99.90;;;;;;6182995;23;20189;-84
2023/09/27 04:22:16;;;;;;;13.47;8.53;;;14.50;99.90;;;;;;6182793;23;20220;-85
2023/09/27 04:24:41;;;;;;;15.57;9.40;;;14.50;99.90;;;;;;6159181;23;20154;-84
2023/09/27 04:27:08;;;;;;;16.20;9.77;;;14.50;99.90;;;;;;6157633;23;20263;-85
2023/09/27 04:29:34;;;;;;;13.30;9.10;;;14.40;99.90;;;;;;6157441;23;20635;-84
2023/09/27 04:31:59;;;;;;;16.80;9.20;;;14.40;99.90;;;;;;6157336;23;20201;-85
2023/09/27 04:34:25;;;;;;;16.53;10.20;;;14.40;99.90;;;;;;6158050;23;20158;-85
2023/09/27 04:36:51;;;;;;;11.43;8.93;;;14.40;99.90;;;;;;6158071;23;20178;-85
2023/09/27 04:39:18;;;;;;;19.67;11.17;;;14.40;99.90;;;;;;6182028;23;20204;-85
2023/09/27 04:41:46;;;;;;;14.43;9.30;;;14.40;99.90;;;;;;6207203;23;20224;-86
2023/09/27 04:44:13;;;;;;;13.87;8.90;;;14.30;99.90;;;;;;6206709;23;20190;-85
2023/09/27 04:46:39;;;;;;;13.90;10.23;;;14.40;99.90;;;;;;6182337;23;20308;-86
2023/09/27 04:49:05;;;;;;;14.00;9.10;;;14.30;99.90;;;;;;6158321;23;20176;-86
2023/09/27 04:51:30;;;;;;;16.90;9.40;;;14.30;99.90;;;;;;6157312;23;20202;-86
2023/09/27 04:54:03;;;;;;;18.10;10.00;;;14.30;99.90;;;;;;6182139;23;21090;-86
2023/09/27 04:56:30;;;;;;;14.23;9.63;;;14.30;99.90;;;;;;6183024;23;20516;-86
2023/09/27 04:58:58;;;;;;;15.10;10.10;;;14.30;99.90;;;;;;6181992;23;20200;-86
2023/09/27 05:01:24;;;;;;;23.40;11.63;;;14.20;99.90;;;;;;6207242;23;20189;-86
2023/09/27 05:03:50;;;;;;;19.10;10.43;;;14.20;99.90;;;;;;6207473;23;20208;-85
2023/09/27 05:06:16;;;;;;;17.27;10.63;;;14.20;99.90;;;;;;6182057;23;20686;-85
2023/09/27 05:08:42;;;;;;;17.00;10.63;;;14.20;99.90;;;;;;6181744;23;20229;-86
2023/09/27 05:11:08;;;;;;;16.57;9.83;;;14.30;99.90;;;;;;6156732;23;20197;-86
2023/09/27 05:13:33;;;;;;;12.07;8.80;;;14.20;99.90;;;;;;6157545;23;20204;-85
2023/09/27 05:15:59;;;;;;;16.33;11.17;;;14.20;99.90;;;;;;6159347;23;20618;-86
2023/09/27 05:18:25;;;;;;;17.67;10.30;;;14.20;99.90;;;;;;6182096;23;20209;-86
2023/09/27 05:20:51;;;;;;;15.83;10.80;;;14.20;99.90;;;;;;6157652;23;20201;-86
2023/09/27 05:23:17;;;;;;;20.13;11.93;;;14.20;99.90;;;;;;6156811;23;20248;-86
2023/09/27 05:25:43;;;;;;;16.03;10.07;;;14.20;99.90;;;;;;6207021;23;20650;-85
2023/09/27 05:28:09;;;;;;;18.50;10.43;;;14.20;99.90;;;;;;6158418;23;20225;-86
2023/09/27 05:30:35;;;;;;;17.10;10.90;;;14.20;99.90;;;;;;6183271;23;20165;-87
2023/09/27 05:33:04;;;;;;;14.07;10.53;;;14.10;99.90;;;;;;6183113;23;20201;-86
2023/09/27 05:35:30;;;;;;;14.73;10.03;;;14.20;99.90;;;;;;6208474;23;20197;-86
2023/09/27 05:37:57;;;;;;;19.23;9.97;;;14.20;99.90;;;;;;6157951;23;20627;-86
2023/09/27 05:40:23;;;;;;;17.10;10.27;;;14.20;99.90;;;;;;6182006;23;20998;-86
2023/09/27 05:42:49;;;;;;;21.17;11.53;;;14.30;99.90;;;;;;6208177;23;20225;-86
2023/09/27 05:45:14;;;;;;;22.67;13.03;;;14.30;99.90;;;;;;6181826;23;20213;-85
2023/09/27 05:47:40;;;;;;;18.80;11.43;;;14.30;99.90;;;;;;6182906;23;20202;-85
2023/09/27 05:50:12;;;;;;;19.90;12.57;;;14.30;99.90;;;;;;6207679;23;20197;-85
2023/09/27 05:52:39;;;;;;;18.17;10.20;;;14.30;99.90;;;;;;6160348;23;20201;-85
2023/09/27 05:55:05;;;;;;;18.77;12.63;;;14.30;99.90;;;;;;6158328;23;20306;-85
2023/09/27 05:57:35;;;;;;;17.67;12.80;;;14.20;99.90;;;;;;6182249;23;20579;-87
2023/09/27 06:00:03;;;;;;;19.30;12.03;;;14.30;99.90;;;;;;6207098;23;20201;-86
2023/09/27 06:02:32;;;;;;;16.93;10.60;;;14.30;99.90;;;;;;6182192;23;20268;-85
2023/09/27 06:04:59;;;;;;;20.17;13.40;;;14.20;99.90;;;;;;6159107;23;20197;-84
2023/09/27 06:07:25;;;;;;;15.47;10.37;;;14.20;99.90;;;;;;6231896;23;20173;-84
2023/09/27 06:09:51;;;;;;;23.33;13.00;;;14.20;99.90;;;;;;6209879;23;20616;-84
2023/09/27 06:12:17;;;;;;;18.07;12.83;;;14.20;99.90;;;;;;6181104;23;20235;-84
2023/09/27 06:14:43;;;;;;;17.47;11.70;;;14.30;99.90;;;;;;6156667;23;20278;-84
2023/09/27 06:17:10;;;;;;;18.60;12.63;;;14.30;99.90;;;;;;6158980;23;20194;-85
2023/09/27 06:19:37;;;;;;;18.57;10.97;;;14.30;99.90;;;;;;6208651;23;20212;-85
2023/09/27 06:22:06;;;;;;;18.80;12.80;;;14.50;99.90;;;;;;6209887;23;20592;-85
2023/09/27 06:24:32;;;;;;;17.00;11.93;;;14.70;99.90;;;;;;6183759;23;20216;-84
2023/09/27 06:26:59;;;;;;;20.63;12.73;;;14.80;99.90;;;;;;6159620;23;20205;-85
2023/09/27 06:29:25;;;;;;;22.50;12.47;;;14.90;99.90;;;;;;6184270;23;20324;-86
2023/09/27 06:31:51;;;;;;;19.73;13.27;;;14.90;99.90;;;;;;6183933;23;20186;-85
2023/09/27 06:34:17;;;;;;;22.60;13.47;;;15.00;99.90;;;;;;6208763;23;20150;-84
2023/09/27 06:36:48;;;;;;;29.27;16.33;;;15.70;99.90;;;;;;6184383;23;20197;-84
2023/09/27 06:39:19;;;;;;;32.93;19.10;;;16.60;99.90;;;;;;6207947;23;20224;-85
2023/09/27 06:41:45;;;;;;;34.10;18.27;;;17.20;99.90;;;;;;6184767;23;20316;-86
2023/09/27 06:44:14;;;;;;;29.53;18.20;;;17.30;99.90;;;;;;6209300;23;20635;-86
2023/09/27 06:46:40;;;;;;;27.10;13.93;;;18.00;99.90;;;;;;6209001;23;20182;-85
2023/09/27 06:49:07;;;;;;;15.27;10.37;;;18.10;99.90;;;;;;6160585;23;20162;-86
2023/09/27 06:51:33;;;;;;;14.23;9.40;;;17.90;99.90;;;;;;6185931;23;20726;-86
2023/09/27 06:53:59;;;;;;;12.00;9.23;;;18.00;99.90;;;;;;6184706;23;20269;-86
2023/09/27 06:56:25;;;;;;;12.40;8.53;;;17.90;99.90;;;;;;6209093;23;20639;-85
2023/09/27 06:58:51;;;;;;;15.50;10.10;;;18.10;99.90;;;;;;6159378;23;20198;-85
2023/09/27 07:01:21;;;;;;;13.70;9.13;;;18.40;99.90;;;;;;6159725;23;20162;-86
2023/09/27 07:03:48;;;;;;;17.67;9.33;;;18.50;99.90;;;;;;6184337;23;20155;-85
2023/09/27 07:06:15;;;;;;;15.20;10.80;;;18.40;99.90;;;;;;6159126;23;20194;-85
2023/09/27 07:08:43;;;;;;;15.57;9.97;;;18.30;99.90;;;;;;6159224;23;20214;-87
2023/09/27 07:11:09;;;;;;;12.17;9.67;;;18.30;99.90;;;;;;6185621;23;20284;-84
2023/09/27 07:13:39;;;;;;;13.90;9.93;;;18.20;99.90;;;;;;6184129;23;20186;-86
2023/09/27 07:16:20;;;;;;;12.17;9.50;;;18.00;99.90;;;;;;6185379;23;20568;-85
2023/09/27 07:18:48;;;;;;;14.87;8.40;;;18.00;99.90;;;;;;6208282;23;20185;-86
2023/09/27 07:21:14;;;;;;;15.00;9.50;;;17.90;99.90;;;;;;6184024;23;20590;-86
2023/09/27 07:23:40;;;;;;;16.00;11.10;;;17.90;99.90;;;;;;6159218;23;20198;-85
2023/09/27 07:26:06;;;;;;;18.73;12.23;;;17.90;99.90;;;;;;6158422;23;20522;-86
2023/09/27 07:28:33;;;;;;;19.27;11.30;;;17.90;99.90;;;;;;6183933;23;20265;-85
2023/09/27 07:30:59;;;;;;;18.77;10.47;;;17.80;99.90;;;;;;6185664;23;20208;-86
2023/09/27 07:33:25;;;;;;;18.20;12.13;;;17.80;99.90;;;;;;6159560;23;20221;-85
2023/09/27 07:35:52;;;;;;;16.53;11.43;;;18.00;99.90;;;;;;6158554;23;20292;-85
2023/09/27 07:38:18;;;;;;;20.47;11.20;;;18.10;99.90;;;;;;6158711;23;20657;-85
2023/09/27 07:40:48;;;;;;;11.63;10.10;;;18.10;99.90;;;;;;6183175;23;20702;-86
2023/09/27 07:43:15;;;;;;;13.60;9.40;;;18.00;99.90;;;;;;6208965;23;20155;-87
2023/09/27 07:45:43;;;;;;;18.07;11.17;;;18.10;99.90;;;;;;6185914;23;20193;-86
2023/09/27 07:48:09;;;;;;;18.27;11.93;;;18.20;99.90;;;;;;6184351;23;20251;-85
2023/09/27 07:50:38;;;;;;;17.73;10.40;;;18.30;99.90;;;;;;6209052;23;20202;-85
2023/09/27 07:53:06;;;;;;;14.23;10.20;;;18.40;99.90;;;;;;6208943;23;20202;-85
2023/09/27 07:55:32;;;;;;;24.20;10.93;;;18.30;99.90;;;;;;6184331;23;20635;-86
2023/09/27 07:57:59;;;;;;;16.00;11.37;;;18.30;99.90;;;;;;6211642;23;20170;-84
2023/09/27 08:00:29;;;;;;;18.10;12.07;;;18.50;99.90;;;;;;6182614;23;20217;-87
2023/09/27 08:02:58;;;;;;;20.40;13.40;;;19.20;99.90;;;;;;6208200;23;20285;-90
2023/09/27 08:05:24;;;;;;;13.90;10.27;;;19.70;99.90;;;;;;6208792;23;20257;-90
2023/09/27 08:07:51;;;;;;;24.40;12.17;;;19.60;99.90;;;;;;6208518;23;20923;-86
2023/09/27 08:10:17;;;;;;;14.23;10.33;;;19.80;99.90;;;;;;6208322;23;20153;-88
2023/09/27 08:12:44;;;;;;;13.50;9.70;;;19.80;99.90;;;;;;6160392;23;20162;-87
2023/09/27 08:15:12;;;;;;;15.20;10.33;;;19.80;99.90;;;;;;6208365;23;20210;-87
2023/09/27 08:17:38;;;;;;;17.20;10.43;;;19.70;99.90;;;;;;6185151;23;20202;-88
2023/09/27 08:20:05;;;;;;;17.67;11.00;;;19.70;99.90;;;;;;6184310;23;20190;-90
2023/09/27 08:22:33;;;;;;;16.13;10.27;;;19.70;99.90;;;;;;6209668;23;20248;-87
2023/09/27 08:24:59;;;;;;;17.53;11.17;;;19.50;99.90;;;;;;6185847;23;20162;-87
2023/09/27 08:27:25;;;;;;;14.80;9.60;;;19.50;99.90;;;;;;6160284;23;20209;-87
2023/09/27 08:29:51;;;;;;;15.33;9.97;;;19.60;99.90;;;;;;6183149;23;20252;-87
2023/09/27 08:32:17;;;;;;;18.80;10.63;;;19.50;99.90;;;;;;6233331;23;20636;-87
2023/09/27 08:34:43;;;;;;;14.77;10.73;;;19.60;99.90;;;;;;6158374;23;20189;-87
2023/09/27 08:37:11;;;;;;;15.80;10.30;;;19.60;99.90;;;;;;6183470;23;20174;-87
2023/09/27 08:39:38;;;;;;;15.60;9.17;;;19.60;99.90;;;;;;6160633;23;20645;-88
2023/09/27 08:42:04;;;;;;;19.50;10.97;;;19.70;99.90;;;;;;6158947;23;20201;-87
2023/09/27 08:44:31;;;;;;;20.93;11.73;;;19.90;99.90;;;;;;6182992;23;20204;-87
2023/09/27 08:46:57;;;;;;;17.70;10.87;;;20.10;99.90;;;;;;6183244;23;20213;-87
2023/09/27 08:49:24;;;;;;;16.60;10.43;;;20.40;99.90;;;;;;6158008;23;20232;-87
2023/09/27 08:51:51;;;;;;;20.80;11.30;;;20.50;99.90;;;;;;6207996;23;20165;-86
2023/09/27 08:54:19;;;;;;;16.27;10.30;;;20.90;99.90;;;;;;6183182;23;20647;-87
2023/09/27 08:56:51;;;;;;;14.07;10.03;;;21.00;99.90;;;;;;6159077;23;20347;-87
2023/09/27 08:59:19;;;;;;;16.43;9.63;;;20.80;99.90;;;;;;6208186;23;20198;-87
2023/09/27 09:01:47;;;;;;;15.87;8.93;;;20.50;99.90;;;;;;6208323;23;20205;-86
2023/09/27 09:04:13;;;;;;;12.63;8.97;;;20.50;99.90;;;;;;6182465;23;20162;-87
2023/09/27 09:06:40;;;;;;;14.50;9.23;;;20.60;99.90;;;;;;6235486;23;20162;-89
2023/09/27 09:09:15;;;;;;;14.57;7.93;;;20.70;99.90;;;;;;6182629;23;20214;-87
2023/09/27 09:11:47;;;;;;;17.43;8.57;;;20.70;99.90;;;;;;6184973;23;20197;-86
2023/09/27 09:14:17;;;;;;;12.03;8.60;;;20.70;99.90;;;;;;6184393;23;20194;-86
2023/09/27 09:16:51;;;;;;;17.03;8.40;;;20.80;99.90;;;;;;6183534;23;20202;-84
2023/09/27 09:19:25;;;;;;;13.97;8.30;;;20.60;99.90;;;;;;6207692;23;20598;-84
2023/09/27 09:22:00;;;;;;;16.87;7.40;;;20.50;99.90;;;;;;6208487;23;20142;-83
2023/09/27 09:24:26;;;;;;;16.40;7.57;;;20.40;99.90;;;;;;6209398;23;20197;-85
2023/09/27 09:27:10;;;;;;;15.70;8.73;;;20.50;99.90;;;;;;6183693;23;20954;-85
2023/09/27 09:29:46;;;;;;;13.90;8.97;;;20.50;99.90;;;;;;6207379;23;20197;-85
2023/09/27 09:32:20;;;;;;;14.67;8.97;;;20.40;99.90;;;;;;6208154;23;20526;-87
2023/09/27 09:34:48;;;;;;;13.60;9.07;;;20.20;99.90;;;;;;6207854;23;20209;-88
2023/09/27 09:37:26;;;;;;;12.10;8.57;;;20.00;99.90;;;;;;6233642;23;20205;-87
2023/09/27 09:40:05;;;;;;;12.37;8.87;;;19.80;99.90;;;;;;6233593;23;20165;-85
2023/09/27 09:42:33;;;;;;;14.37;8.73;;;19.70;99.90;;;;;;6184922;23;21026;-88
2023/09/27 09:45:08;;;;;;;13.10;8.30;;;19.70;99.90;;;;;;6207650;23;20717;-86
2023/09/27 09:47:37;;;;;;;11.67;8.10;;;19.70;99.90;;;;;;6233010;23;21038;-88
2023/09/27 09:50:06;;;;;;;13.37;8.33;;;19.60;99.90;;;;;;6184445;23;20202;-86
2023/09/27 09:52:35;;;;;;;18.70;8.40;;;19.60;99.90;;;;;;6186232;23;20706;-86
2023/09/27 09:55:06;;;;;;;16.13;9.80;;;19.60;99.90;;;;;;6187144;23;20169;-86
2023/09/27 09:57:36;;;;;;;15.67;8.43;;;19.40;99.90;;;;;;6210496;23;20198;-87
2023/09/27 10:00:25;;;;;;;12.83;8.33;;;19.20;99.90;;;;;;6210977;23;20280;-88
2023/09/27 10:03:01;;;;;;;18.43;9.40;;;19.30;99.90;;;;;;6168428;23;20283;-86
2023/09/27 10:05:46;;;;;;;12.87;7.50;;;19.30;99.90;;;;;;6210022;23;20252;-87
2023/09/27 10:08:12;;;;;;;15.17;7.80;;;19.30;99.90;;;;;;6209502;23;20217;-86
2023/09/27 10:10:39;;;;;;;12.70;8.83;;;19.30;99.90;;;;;;6185159;23;20574;-87
2023/09/27 10:13:06;;;;;;;13.70;9.23;;;19.30;99.90;;;;;;6186220;23;20162;-87
2023/09/27 10:15:36;;;;;;;13.43;9.40;;;19.40;99.90;;;;;;6185523;23;20202;-87
2023/09/27 10:18:23;;;;;;;14.13;9.90;;;19.50;99.90;;;;;;6209732;23;20277;-87
2023/09/27 10:21:16;;;;;;;13.93;8.67;;;19.80;99.90;;;;;;6235399;23;20225;-87
2023/09/27 10:23:53;;;;;;;14.37;8.97;;;19.60;99.90;;;;;;6230807;23;20702;-87
2023/09/27 10:26:28;;;;;;;17.33;7.77;;;19.60;99.90;;;;;;6234852;23;20210;-87
2023/09/27 10:29:06;;;;;;;14.17;9.70;;;19.50;99.90;;;;;;6235079;23;20537;-86
2023/09/27 10:31:33;;;;;;;16.13;8.93;;;19.40;99.90;;;;;;6220869;23;20725;-87
2023/09/27 10:33:59;;;;;;;17.60;9.40;;;19.40;99.90;;;;;;6211235;23;20615;-87
2023/09/27 10:36:25;;;;;;;16.23;9.13;;;19.50;99.90;;;;;;6209251;23;20246;-87
2023/09/27 10:38:50;;;;;;;17.53;9.40;;;19.60;99.90;;;;;;6235039;23;20197;-87
2023/09/27 10:41:40;;;;;;;13.17;8.27;;;19.80;99.90;;;;;;6234929;23;20208;-87
2023/09/27 10:44:06;;;;;;;11.13;8.17;;;20.00;99.90;;;;;;6200286;23;20202;-87
2023/09/27 10:46:42;;;;;;;13.33;8.00;;;20.30;99.90;;;;;;6184718;23;20197;-87
2023/09/27 10:49:09;;;;;;;13.90;8.50;;;20.30;99.90;;;;;;6209852;23;20154;-86
2023/09/27 10:51:35;;;;;;;12.53;8.67;;;20.30;99.90;;;;;;6185678;23;20162;-88
2023/09/27 10:54:10;;;;;;;12.47;7.53;;;20.30;99.90;;;;;;6185523;23;20288;-87
2023/09/27 10:56:37;;;;;;;16.67;8.07;;;20.40;99.90;;;;;;6210816;23;20210;-87
2023/09/27 10:59:04;;;;;;;12.70;7.77;;;20.40;99.90;;;;;;6159923;23;20226;-88
2023/09/27 11:01:31;;;;;;;11.13;6.80;;;20.50;99.90;;;;;;6209521;23;20530;-87
2023/09/27 11:04:01;;;;;;;11.60;6.50;;;20.60;99.90;;;;;;6185917;23;20170;-88
2023/09/27 11:06:30;;;;;;;9.33;5.37;;;20.60;99.90;;;;;;6209458;23;20193;-86
2023/09/27 11:09:23;;;;;;;8.47;5.17;;;20.60;99.90;;;;;;6209068;23;20216;-87
2023/09/27 11:11:57;;;;;;;12.23;5.77;;;20.70;99.90;;;;;;6206396;23;20651;-87
2023/09/27 11:14:33;;;;;;;12.07;5.60;;;20.90;99.90;;;;;;6186517;23;20272;-88
2023/09/27 11:17:22;;;;;;;8.07;5.53;;;21.20;99.90;;;;;;6161898;23;20222;-89
2023/09/27 11:19:52;;;;;;;11.60;6.30;;;21.30;99.90;;;;;;6209884;23;20193;-88
2023/09/27 11:22:28;;;;;;;7.47;5.40;;;21.50;99.90;;;;;;6185963;23;20177;-87
2023/09/27 11:24:56;;;;;;;10.40;5.63;;;21.30;99.90;;;;;;6186073;23;20150;-87
2023/09/27 11:27:22;;;;;;;7.97;5.25;;;21.40;99.90;;;;;;6208402;23;20201;-85
2023/09/27 11:29:52;;;;;;;11.70;6.72;;;20.90;99.90;;;;;;6158282;23;20248;-84
2023/09/27 11:32:19;;;;;;;5.82;4.80;;;20.70;99.90;;;;;;6183637;23;20666;-85
2023/09/27 11:34:58;;;;;;;8.60;5.28;;;20.70;99.90;;;;;;6158802;23;20194;-85
2023/09/27 11:37:25;;;;;;;11.93;4.65;;;20.90;99.90;;;;;;6184512;23;20173;-89
2023/09/27 11:39:52;;;;;;;11.02;6.30;;;21.40;99.90;;;;;;6210720;23;20212;-89
2023/09/27 11:42:25;;;;;;;15.50;7.25;;;22.00;99.90;;;;;;6185075;23;20193;-88
2023/09/27 11:45:04;;;;;;;11.13;5.50;;;22.70;99.90;;;;;;6185330;23;20194;-91
2023/09/27 11:47:31;;;;;;;7.53;5.35;;;23.20;99.90;;;;;;6185765;23;20198;-86
2023/09/27 11:49:57;;;;;;;11.65;5.63;;;23.60;99.90;;;;;;6184564;23;20345;-85
2023/09/27 11:52:23;;;;;;;11.88;5.10;;;23.30;99.90;;;;;;6184704;23;20493;-88
2023/09/27 11:54:49;;;;;;;6.22;4.18;;;23.00;99.90;;;;;;6211104;23;20154;-88
2023/09/27 11:57:15;;;;;;;7.22;4.93;;;22.80;99.90;;;;;;6185030;23;20214;-85
2023/09/27 11:59:41;;;;;;;10.60;5.07;;;22.90;99.90;;;;;;6159413;23;20662;-84
2023/09/27 12:02:09;;;;;;;6.45;5.32;;;22.90;99.90;;;;;;6159413;23;20193;-84
2023/09/27 12:04:35;;;;;;;8.45;4.68;;;22.70;99.90;;;;;;6184650;23;20189;-85
2023/09/27 12:07:01;;;;;;;12.05;4.60;;;22.80;99.90;;;;;;6185370;23;20162;-83
2023/09/27 12:09:26;;;;;;;9.00;4.68;;;23.40;99.90;;;;;;6157846;23;20210;-86
2023/09/27 12:11:52;;;;;;;5.03;3.95;;;23.40;99.90;;;;;;6158729;23;20209;-85
2023/09/27 12:14:18;;;;;;;8.32;3.70;;;23.50;99.90;;;;;;6157869;23;20257;-87
2023/09/27 12:16:44;;;;;;;4.82;3.65;;;23.30;99.90;;;;;;6184084;23;20213;-86
2023/09/27 12:19:09;;;;;;;6.40;3.78;;;22.90;99.90;;;;;;6158680;23;20162;-86
2023/09/27 12:21:36;;;;;;;7.18;4.47;;;22.80;99.90;;;;;;6159205;23;20216;-86
2023/09/27 12:24:03;;;;;;;6.28;3.83;;;22.40;99.90;;;;;;6207743;23;20281;-87
2023/09/27 12:26:29;;;;;;;6.55;3.25;;;22.30;99.90;;;;;;6183797;23;20193;-87
2023/09/27 12:28:56;;;;;;;6.95;3.70;;;22.20;99.90;;;;;;6183921;23;20395;-87
2023/09/27 12:31:23;;;;;;;5.82;3.50;;;22.40;99.90;;;;;;6184834;23;20162;-86
2023/09/27 12:33:48;;;;;;;5.05;2.53;;;22.40;99.90;;;;;;6209323;23;20732;-87
2023/09/27 12:36:14;;;;;;;6.40;3.25;;;22.50;99.90;;;;;;6158230;23;20205;-87
2023/09/27 12:38:40;;;;;;;4.63;2.80;;;22.30;99.90;;;;;;6207511;23;20190;-85